sensor_id;sensor_type;location;lat;lon;timestamp;pressure;altitude;pressure_sealevel;temperature;humidity
17615;BME280;8926;49.720;6.576;2022-12-18T00:01:24;100938.88;;;-5.69;78.19
17615;BME280;8926;49.720;6.576;2022-12-18T00:03:50;100939.66;;;-5.73;77.26
17615;BME280;8926;49.720;6.576;2022-12-18T00:06:16;100929.34;;;-5.77;76.76
17615;BME280;8926;49.720;6.576;2022-12-18T00:08:42;100924.22;;;-5.79;76.74
17615;BME280;8926;49.720;6.576;2022-12-18T00:11:13;100931.13;;;-5.75;77.02
17615;BME280;8926;49.720;6.576;2022-12-18T00:13:39;100946.28;;;-5.78;76.51
17615;BME280;8926;49.720;6.576;2022-12-18T00:16:07;100953.09;;;-5.77;76.61
17615;BME280;8926;49.720;6.576;2022-12-18T00:18:33;100938.66;;;-5.78;76.97
17615;BME280;8926;49.720;6.576;2022-12-18T00:21:00;100939.38;;;-5.82;76.30
17615;BME280;8926;49.720;6.576;2022-12-18T00:23:26;100929.28;;;-5.79;76.84
17615;BME280;8926;49.720;6.576;2022-12-18T00:25:52;100941.03;;;-5.84;77.16
17615;BME280;8926;49.720;6.576;2022-12-18T00:28:17;100935.94;;;-5.84;77.24
17615;BME280;8926;49.720;6.576;2022-12-18T00:30:42;100927.47;;;-5.83;77.53
17615;BME280;8926;49.720;6.576;2022-12-18T00:33:08;100934.38;;;-5.79;77.45
17615;BME280;8926;49.720;6.576;2022-12-18T00:35:33;100935.84;;;-5.87;76.67
17615;BME280;8926;49.720;6.576;2022-12-18T00:37:58;100941.72;;;-5.90;76.78
17615;BME280;8926;49.720;6.576;2022-12-18T00:40:23;100939.16;;;-5.91;76.64
17615;BME280;8926;49.720;6.576;2022-12-18T00:42:49;100926.47;;;-5.90;77.23
17615;BME280;8926;49.720;6.576;2022-12-18T00:45:24;100928.97;;;-5.91;76.89
17615;BME280;8926;49.720;6.576;2022-12-18T00:47:50;100920.44;;;-5.93;76.49
17615;BME280;8926;49.720;6.576;2022-12-18T00:50:15;100923.78;;;-5.94;76.78
17615;BME280;8926;49.720;6.576;2022-12-18T00:52:41;100929.88;;;-5.89;77.21
17615;BME280;8926;49.720;6.576;2022-12-18T00:55:07;100930.44;;;-5.99;76.81
17615;BME280;8926;49.720;6.576;2022-12-18T00:57:32;100933.78;;;-6.02;77.10
17615;BME280;8926;49.720;6.576;2022-12-18T00:59:57;100939.72;;;-6.01;77.81
17615;BME280;8926;49.720;6.576;2022-12-18T01:02:22;100934.59;;;-6.03;77.62
17615;BME280;8926;49.720;6.576;2022-12-18T01:04:48;100932.91;;;-6.02;77.53
17615;BME280;8926;49.720;6.576;2022-12-18T01:07:13;100923.63;;;-6.00;77.05
17615;BME280;8926;49.720;6.576;2022-12-18T01:09:38;100942.34;;;-5.98;77.04
17615;BME280;8926;49.720;6.576;2022-12-18T01:12:04;100937.28;;;-5.97;77.21
17615;BME280;8926;49.720;6.576;2022-12-18T01:14:29;100942.41;;;-5.95;76.87
17615;BME280;8926;49.720;6.576;2022-12-18T01:16:55;100943.22;;;-5.96;76.65
17615;BME280;8926;49.720;6.576;2022-12-18T01:19:20;100927.00;;;-6.01;75.39
17615;BME280;8926;49.720;6.576;2022-12-18T01:21:45;100918.38;;;-6.06;75.32
17615;BME280;8926;49.720;6.576;2022-12-18T01:24:11;100915.00;;;-6.05;75.85
17615;BME280;8926;49.720;6.576;2022-12-18T01:26:37;100928.44;;;-6.09;75.33
17615;BME280;8926;49.720;6.576;2022-12-18T01:29:02;100928.44;;;-6.09;76.15
17615;BME280;8926;49.720;6.576;2022-12-18T01:31:30;100936.13;;;-6.08;76.56
17615;BME280;8926;49.720;6.576;2022-12-18T01:33:56;100934.41;;;-6.09;76.52
17615;BME280;8926;49.720;6.576;2022-12-18T01:36:24;100940.44;;;-6.05;76.34
17615;BME280;8926;49.720;6.576;2022-12-18T01:38:50;100943.81;;;-6.06;76.08
17615;BME280;8926;49.720;6.576;2022-12-18T01:41:18;100939.47;;;-6.09;76.08
17615;BME280;8926;49.720;6.576;2022-12-18T01:44:46;100930.28;;;-6.05;76.70
17615;BME280;8926;49.720;6.576;2022-12-18T01:46:49;100920.00;;;-6.08;76.23
17615;BME280;8926;49.720;6.576;2022-12-18T01:49:14;100919.91;;;-6.11;76.40
17615;BME280;8926;49.720;6.576;2022-12-18T01:51:40;100922.13;;;-6.22;75.49
17615;BME280;8926;49.720;6.576;2022-12-18T01:54:05;100917.03;;;-6.22;75.97
17615;BME280;8926;49.720;6.576;2022-12-18T01:56:30;100917.84;;;-6.25;75.94
17615;BME280;8926;49.720;6.576;2022-12-18T01:59:03;100907.69;;;-6.25;76.00
17615;BME280;8926;49.720;6.576;2022-12-18T02:01:32;100906.88;;;-6.22;76.13
17615;BME280;8926;49.720;6.576;2022-12-18T02:04:21;100918.00;;;-6.19;76.07
17615;BME280;8926;49.720;6.576;2022-12-18T02:06:50;100931.44;;;-6.23;76.31
17615;BME280;8926;49.720;6.576;2022-12-18T02:09:22;100928.81;;;-6.26;76.48
17615;BME280;8926;49.720;6.576;2022-12-18T02:14:38;100928.41;;;-6.39;76.10
17615;BME280;8926;49.720;6.576;2022-12-18T02:17:12;100931.00;;;-6.38;76.18
17615;BME280;8926;49.720;6.576;2022-12-18T02:19:54;100927.53;;;-6.40;76.79
17615;BME280;8926;49.720;6.576;2022-12-18T02:28:17;100913.66;;;-6.51;75.72
17615;BME280;8926;49.720;6.576;2022-12-18T02:30:47;100901.84;;;-6.49;76.09
17615;BME280;8926;49.720;6.576;2022-12-18T02:33:14;100906.91;;;-6.49;75.39
17615;BME280;8926;49.720;6.576;2022-12-18T02:35:40;100901.84;;;-6.49;76.07
17615;BME280;8926;49.720;6.576;2022-12-18T02:38:07;100900.81;;;-6.56;75.39
17615;BME280;8926;49.720;6.576;2022-12-18T02:40:32;100907.38;;;-6.62;75.10
17615;BME280;8926;49.720;6.576;2022-12-18T02:43:13;100901.56;;;-6.58;75.35
17615;BME280;8926;49.720;6.576;2022-12-18T02:45:48;100897.34;;;-6.58;75.81
17615;BME280;8926;49.720;6.576;2022-12-18T02:48:13;100899.19;;;-6.54;75.70
17615;BME280;8926;49.720;6.576;2022-12-18T02:50:45;100906.75;;;-6.55;75.34
17615;BME280;8926;49.720;6.576;2022-12-18T02:58:24;100898.31;;;-6.54;75.73
17615;BME280;8926;49.720;6.576;2022-12-18T03:01:12;100906.75;;;-6.55;75.93
17615;BME280;8926;49.720;6.576;2022-12-18T03:04:11;100905.75;;;-6.60;75.23
17615;BME280;8926;49.720;6.576;2022-12-18T03:06:42;100905.78;;;-6.59;75.91
17615;BME280;8926;49.720;6.576;2022-12-18T03:09:14;100921.78;;;-6.61;75.79
17615;BME280;8926;49.720;6.576;2022-12-18T03:11:41;100929.53;;;-6.58;75.60
17615;BME280;8926;49.720;6.576;2022-12-18T03:14:30;100924.34;;;-6.61;76.00
17615;BME280;8926;49.720;6.576;2022-12-18T03:17:00;100920.88;;;-6.63;75.54
17615;BME280;8926;49.720;6.576;2022-12-18T03:19:28;100920.59;;;-6.72;75.39
17615;BME280;8926;49.720;6.576;2022-12-18T03:21:56;100918.03;;;-6.72;75.28
17615;BME280;8926;49.720;6.576;2022-12-18T03:24:26;100921.34;;;-6.76;75.49
17615;BME280;8926;49.720;6.576;2022-12-18T03:26:58;100919.31;;;-6.87;75.18
17615;BME280;8926;49.720;6.576;2022-12-18T03:29:33;100917.56;;;-6.88;74.80
17615;BME280;8926;49.720;6.576;2022-12-18T03:32:23;100907.50;;;-6.85;75.79
17615;BME280;8926;49.720;6.576;2022-12-18T03:34:51;100913.66;;;-6.78;75.63
17615;BME280;8926;49.720;6.576;2022-12-18T03:37:20;100907.03;;;-6.73;75.93
17615;BME280;8926;49.720;6.576;2022-12-18T03:39:45;100911.34;;;-6.70;75.30
17615;BME280;8926;49.720;6.576;2022-12-18T03:45:02;100914.59;;;-6.74;76.09
17615;BME280;8926;49.720;6.576;2022-12-18T03:47:38;100918.81;;;-6.75;75.96
17615;BME280;8926;49.720;6.576;2022-12-18T03:50:14;100922.31;;;-6.71;76.25
17615;BME280;8926;49.720;6.576;2022-12-18T03:52:53;100907.78;;;-6.75;75.31
17615;BME280;8926;49.720;6.576;2022-12-18T03:55:21;100917.13;;;-6.76;75.65
17615;BME280;8926;49.720;6.576;2022-12-18T03:57:48;100906.16;;;-6.73;75.79
17615;BME280;8926;49.720;6.576;2022-12-18T04:00:17;100895.94;;;-6.76;75.11
17615;BME280;8926;49.720;6.576;2022-12-18T04:02:47;100901.81;;;-6.77;75.10
17615;BME280;8926;49.720;6.576;2022-12-18T04:05:14;100900.03;;;-6.80;75.22
17615;BME280;8926;49.720;6.576;2022-12-18T04:07:40;100907.31;;;-6.91;74.41
17615;BME280;8926;49.720;6.576;2022-12-18T04:10:07;100903.75;;;-6.96;74.57
17615;BME280;8926;49.720;6.576;2022-12-18T04:12:33;100895.06;;;-7.04;75.05
17615;BME280;8926;49.720;6.576;2022-12-18T04:14:58;100895.91;;;-7.03;74.89
17615;BME280;8926;49.720;6.576;2022-12-18T04:17:23;100897.66;;;-7.01;75.39
17615;BME280;8926;49.720;6.576;2022-12-18T04:19:49;100884.97;;;-7.01;75.41
17615;BME280;8926;49.720;6.576;2022-12-18T04:22:14;100890.09;;;-6.99;74.90
17615;BME280;8926;49.720;6.576;2022-12-18T04:24:40;100888.53;;;-6.96;75.49
17615;BME280;8926;49.720;6.576;2022-12-18T04:27:05;100882.03;;;-6.88;75.37
17615;BME280;8926;49.720;6.576;2022-12-18T04:29:30;100887.28;;;-6.81;75.20
17615;BME280;8926;49.720;6.576;2022-12-18T04:31:56;100887.28;;;-6.81;75.04
17615;BME280;8926;49.720;6.576;2022-12-18T04:34:21;100882.97;;;-6.84;75.46
17615;BME280;8926;49.720;6.576;2022-12-18T04:36:47;100893.81;;;-6.90;74.47
17615;BME280;8926;49.720;6.576;2022-12-18T04:39:13;100912.09;;;-7.00;74.94
17615;BME280;8926;49.720;6.576;2022-12-18T04:41:38;100896.78;;;-7.03;75.25
17615;BME280;8926;49.720;6.576;2022-12-18T04:44:04;100890.78;;;-7.05;74.74
17615;BME280;8926;49.720;6.576;2022-12-18T04:46:29;100890.91;;;-7.00;75.77
17615;BME280;8926;49.720;6.576;2022-12-18T04:48:54;100879.88;;;-7.01;74.73
17615;BME280;8926;49.720;6.576;2022-12-18T04:51:20;100880.81;;;-6.99;74.66
17615;BME280;8926;49.720;6.576;2022-12-18T04:53:45;100890.97;;;-6.99;74.66
17615;BME280;8926;49.720;6.576;2022-12-18T04:56:12;100895.13;;;-7.01;74.82
17615;BME280;8926;49.720;6.576;2022-12-18T04:58:39;100904.47;;;-7.00;75.24
17615;BME280;8926;49.720;6.576;2022-12-18T05:01:06;100905.22;;;-7.04;75.23
17615;BME280;8926;49.720;6.576;2022-12-18T05:03:32;100916.88;;;-7.09;74.77
17615;BME280;8926;49.720;6.576;2022-12-18T05:05:58;100912.50;;;-7.13;74.66
17615;BME280;8926;49.720;6.576;2022-12-18T05:08:23;100912.56;;;-7.11;75.82
17615;BME280;8926;49.720;6.576;2022-12-18T05:10:48;100917.63;;;-7.11;74.64
17615;BME280;8926;49.720;6.576;2022-12-18T05:13:14;100926.81;;;-7.15;75.50
17615;BME280;8926;49.720;6.576;2022-12-18T05:15:39;100931.75;;;-7.20;74.68
17615;BME280;8926;49.720;6.576;2022-12-18T05:18:05;100925.00;;;-7.19;75.05
17615;BME280;8926;49.720;6.576;2022-12-18T05:20:31;100924.19;;;-7.18;75.40
17615;BME280;8926;49.720;6.576;2022-12-18T05:22:57;100923.38;;;-7.17;75.95
17615;BME280;8926;49.720;6.576;2022-12-18T05:25:23;100924.06;;;-7.21;75.23
17615;BME280;8926;49.720;6.576;2022-12-18T05:27:48;100924.06;;;-7.21;75.04
17615;BME280;8926;49.720;6.576;2022-12-18T05:30:14;100916.47;;;-7.21;74.95
17615;BME280;8926;49.720;6.576;2022-12-18T05:32:40;100934.13;;;-7.24;74.46
17615;BME280;8926;49.720;6.576;2022-12-18T05:35:07;100941.56;;;-7.30;74.84
17615;BME280;8926;49.720;6.576;2022-12-18T05:37:33;100938.28;;;-7.26;74.67
17615;BME280;8926;49.720;6.576;2022-12-18T05:39:58;100944.03;;;-7.32;74.63
17615;BME280;8926;49.720;6.576;2022-12-18T05:42:24;100945.78;;;-7.31;74.87
17615;BME280;8926;49.720;6.576;2022-12-18T05:44:49;100951.78;;;-7.27;74.65
17615;BME280;8926;49.720;6.576;2022-12-18T05:47:14;100958.34;;;-7.34;74.50
17615;BME280;8926;49.720;6.576;2022-12-18T05:49:40;100963.47;;;-7.32;74.81
17615;BME280;8926;49.720;6.576;2022-12-18T05:52:05;100951.59;;;-7.33;74.55
17615;BME280;8926;49.720;6.576;2022-12-18T05:54:30;100951.38;;;-7.39;74.17
17615;BME280;8926;49.720;6.576;2022-12-18T05:56:56;100946.19;;;-7.42;73.88
17615;BME280;8926;49.720;6.576;2022-12-18T05:59:23;100940.53;;;-7.35;74.83
17615;BME280;8926;49.720;6.576;2022-12-18T06:01:48;100943.88;;;-7.36;74.29
17615;BME280;8926;49.720;6.576;2022-12-18T06:04:14;100953.22;;;-7.35;74.63
17615;BME280;8926;49.720;6.576;2022-12-18T06:06:39;100946.63;;;-7.30;74.28
17615;BME280;8926;49.720;6.576;2022-12-18T06:09:04;100949.97;;;-7.31;73.88
17615;BME280;8926;49.720;6.576;2022-12-18T06:11:36;100946.41;;;-7.36;73.56
17615;BME280;8926;49.720;6.576;2022-12-18T06:14:02;100947.22;;;-7.37;74.58
17615;BME280;8926;49.720;6.576;2022-12-18T06:16:29;100942.19;;;-7.36;74.24
17615;BME280;8926;49.720;6.576;2022-12-18T06:18:59;100948.03;;;-7.38;73.84
17615;BME280;8926;49.720;6.576;2022-12-18T06:21:24;100947.38;;;-7.33;73.83
17615;BME280;8926;49.720;6.576;2022-12-18T06:23:50;100956.00;;;-7.52;73.55
17615;BME280;8926;49.720;6.576;2022-12-18T06:26:15;100957.66;;;-7.54;74.42
17615;BME280;8926;49.720;6.576;2022-12-18T06:28:41;100956.81;;;-7.53;74.23
17615;BME280;8926;49.720;6.576;2022-12-18T06:31:07;100961.81;;;-7.56;74.18
17615;BME280;8926;49.720;6.576;2022-12-18T06:33:33;100967.69;;;-7.57;73.78
17615;BME280;8926;49.720;6.576;2022-12-18T06:36:00;100966.88;;;-7.56;74.21
17615;BME280;8926;49.720;6.576;2022-12-18T06:38:26;100970.94;;;-7.61;73.70
17615;BME280;8926;49.720;6.576;2022-12-18T06:40:52;100974.56;;;-7.53;73.61
17615;BME280;8926;49.720;6.576;2022-12-18T06:43:17;100971.84;;;-7.59;73.21
17615;BME280;8926;49.720;6.576;2022-12-18T06:45:42;100974.50;;;-7.56;74.07
17615;BME280;8926;49.720;6.576;2022-12-18T06:48:08;100973.34;;;-7.64;73.63
17615;BME280;8926;49.720;6.576;2022-12-18T06:50:33;100965.84;;;-7.61;74.47
17615;BME280;8926;49.720;6.576;2022-12-18T06:52:59;100966.97;;;-7.53;74.17
17615;BME280;8926;49.720;6.576;2022-12-18T06:55:24;100976.31;;;-7.52;74.46
17615;BME280;8926;49.720;6.576;2022-12-18T06:57:49;100983.03;;;-7.54;73.66
17615;BME280;8926;49.720;6.576;2022-12-18T07:00:15;100987.06;;;-7.59;73.88
17615;BME280;8926;49.720;6.576;2022-12-18T07:02:40;100984.66;;;-7.56;73.72
17615;BME280;8926;49.720;6.576;2022-12-18T07:05:06;100985.75;;;-7.47;74.33
17615;BME280;8926;49.720;6.576;2022-12-18T07:07:33;100986.91;;;-7.39;74.12
17615;BME280;8926;49.720;6.576;2022-12-18T07:09:58;100991.16;;;-7.38;73.52
17615;BME280;8926;49.720;6.576;2022-12-18T07:12:24;100990.38;;;-7.37;73.06
17615;BME280;8926;49.720;6.576;2022-12-18T07:14:52;101001.38;;;-7.37;73.24
17615;BME280;8926;49.720;6.576;2022-12-18T07:17:17;101003.00;;;-7.39;73.51
17615;BME280;8926;49.720;6.576;2022-12-18T07:19:42;101013.16;;;-7.39;74.12
17615;BME280;8926;49.720;6.576;2022-12-18T07:22:07;101012.41;;;-7.36;73.85
17615;BME280;8926;49.720;6.576;2022-12-18T07:24:33;101014.25;;;-7.32;74.10
17615;BME280;8926;49.720;6.576;2022-12-18T07:26:59;101015.09;;;-7.32;73.92
17615;BME280;8926;49.720;6.576;2022-12-18T07:29:24;101012.44;;;-7.35;73.23
17615;BME280;8926;49.720;6.576;2022-12-18T07:31:50;101010.09;;;-7.30;73.06
17615;BME280;8926;49.720;6.576;2022-12-18T07:34:15;101011.00;;;-7.28;73.49
17615;BME280;8926;49.720;6.576;2022-12-18T07:36:41;101012.81;;;-7.24;73.03
17615;BME280;8926;49.720;6.576;2022-12-18T07:39:06;101009.69;;;-7.17;73.35
17615;BME280;8926;49.720;6.576;2022-12-18T07:41:32;101001.25;;;-7.16;73.36
17615;BME280;8926;49.720;6.576;2022-12-18T07:43:57;100992.72;;;-7.18;72.99
17615;BME280;8926;49.720;6.576;2022-12-18T07:46:22;100997.31;;;-7.08;72.95
17615;BME280;8926;49.720;6.576;2022-12-18T07:48:48;100984.84;;;-7.02;73.14
17615;BME280;8926;49.720;6.576;2022-12-18T07:51:13;100969.88;;;-6.93;72.70
17615;BME280;8926;49.720;6.576;2022-12-18T07:53:39;100978.31;;;-6.94;71.57
17615;BME280;8926;49.720;6.576;2022-12-18T07:56:07;100976.09;;;-6.85;72.21
17615;BME280;8926;49.720;6.576;2022-12-18T07:58:34;100978.84;;;-6.78;71.84
17615;BME280;8926;49.720;6.576;2022-12-18T08:01:04;100983.81;;;-6.81;71.38
17615;BME280;8926;49.720;6.576;2022-12-18T08:03:30;100968.56;;;-6.81;71.83
17615;BME280;8926;49.720;6.576;2022-12-18T08:06:00;100972.31;;;-6.70;72.19
17615;BME280;8926;49.720;6.576;2022-12-18T08:08:26;100959.75;;;-6.66;71.89
17615;BME280;8926;49.720;6.576;2022-12-18T08:10:51;100966.00;;;-6.56;71.75
17615;BME280;8926;49.720;6.576;2022-12-18T08:13:17;100955.19;;;-6.49;71.55
17615;BME280;8926;49.720;6.576;2022-12-18T08:15:42;100966.56;;;-6.38;72.15
17615;BME280;8926;49.720;6.576;2022-12-18T08:18:07;100964.19;;;-6.33;71.86
17615;BME280;8926;49.720;6.576;2022-12-18T08:20:32;100972.81;;;-6.28;71.33
17615;BME280;8926;49.720;6.576;2022-12-18T08:22:58;100968.50;;;-6.31;70.87
17615;BME280;8926;49.720;6.576;2022-12-18T08:25:23;100968.75;;;-6.22;70.87
17615;BME280;8926;49.720;6.576;2022-12-18T08:27:48;100963.00;;;-6.16;70.89
17615;BME280;8926;49.720;6.576;2022-12-18T08:30:14;100964.25;;;-6.03;70.89
17615;BME280;8926;49.720;6.576;2022-12-18T08:32:39;100957.91;;;-5.86;70.49
17615;BME280;8926;49.720;6.576;2022-12-18T08:35:05;100958.28;;;-5.74;70.36
17615;BME280;8926;49.720;6.576;2022-12-18T08:37:30;100958.44;;;-5.68;69.38
17615;BME280;8926;49.720;6.576;2022-12-18T08:39:56;100953.88;;;-5.50;69.35
17615;BME280;8926;49.720;6.576;2022-12-18T08:42:21;100958.75;;;-5.26;69.35
17615;BME280;8926;49.720;6.576;2022-12-18T08:45:05;100954.28;;;-3.93;67.00
17615;BME280;8926;49.720;6.576;2022-12-18T08:47:31;100949.13;;;-2.56;61.55
17615;BME280;8926;49.720;6.576;2022-12-18T08:49:56;100950.25;;;-1.00;56.97
17615;BME280;8926;49.720;6.576;2022-12-18T08:52:21;100944.41;;;0.63;53.52
17615;BME280;8926;49.720;6.576;2022-12-18T08:54:47;100939.28;;;1.91;49.74
17615;BME280;8926;49.720;6.576;2022-12-18T08:57:12;100931.88;;;3.09;47.05
17615;BME280;8926;49.720;6.576;2022-12-18T08:59:37;100933.63;;;3.97;50.25
17615;BME280;8926;49.720;6.576;2022-12-18T09:02:02;100937.16;;;4.62;47.19
17615;BME280;8926;49.720;6.576;2022-12-18T09:04:28;100931.44;;;4.39;43.84
17615;BME280;8926;49.720;6.576;2022-12-18T09:06:53;100936.28;;;4.63;48.37
17615;BME280;8926;49.720;6.576;2022-12-18T09:09:18;100936.75;;;4.93;45.68
17615;BME280;8926;49.720;6.576;2022-12-18T09:11:44;100937.59;;;6.41;43.08
17615;BME280;8926;49.720;6.576;2022-12-18T09:14:10;100934.88;;;6.49;43.21
17615;BME280;8926;49.720;6.576;2022-12-18T09:16:35;100936.31;;;6.62;43.60
17615;BME280;8926;49.720;6.576;2022-12-18T09:19:02;100936.06;;;6.74;41.96
17615;BME280;8926;49.720;6.576;2022-12-18T09:21:31;100924.47;;;7.26;39.99
17615;BME280;8926;49.720;6.576;2022-12-18T09:23:56;100914.53;;;7.41;38.89
17615;BME280;8926;49.720;6.576;2022-12-18T09:26:23;100916.97;;;6.35;42.04
17615;BME280;8926;49.720;6.576;2022-12-18T09:28:50;100916.47;;;5.70;40.65
17615;BME280;8926;49.720;6.576;2022-12-18T09:31:17;100929.53;;;5.65;42.75
17615;BME280;8926;49.720;6.576;2022-12-18T09:33:43;100925.25;;;5.10;41.82
17615;BME280;8926;49.720;6.576;2022-12-18T09:36:12;100926.00;;;6.16;43.28
17615;BME280;8926;49.720;6.576;2022-12-18T09:38:37;100925.03;;;6.23;43.90
17615;BME280;8926;49.720;6.576;2022-12-18T09:41:06;100929.56;;;6.11;42.64
17615;BME280;8926;49.720;6.576;2022-12-18T09:43:47;100924.81;;;6.32;39.85
17615;BME280;8926;49.720;6.576;2022-12-18T09:46:27;100934.44;;;6.27;39.42
17615;BME280;8926;49.720;6.576;2022-12-18T09:48:57;100933.34;;;5.95;39.42
17615;BME280;8926;49.720;6.576;2022-12-18T09:51:28;100922.72;;;6.07;39.28
17615;BME280;8926;49.720;6.576;2022-12-18T09:54:07;100905.56;;;6.80;42.12
17615;BME280;8926;49.720;6.576;2022-12-18T09:56:40;100904.94;;;6.31;39.61
17615;BME280;8926;49.720;6.576;2022-12-18T09:59:56;100901.41;;;6.35;41.06
17615;BME280;8926;49.720;6.576;2022-12-18T10:02:23;100902.91;;;6.02;40.49
17615;BME280;8926;49.720;6.576;2022-12-18T10:07:38;100901.78;;;4.63;44.53
17615;BME280;8926;49.720;6.576;2022-12-18T10:10:14;100910.97;;;4.18;45.03
17615;BME280;8926;49.720;6.576;2022-12-18T10:13:02;100908.22;;;4.33;44.30
17615;BME280;8926;49.720;6.576;2022-12-18T10:18:41;100904.63;;;4.43;44.05
17615;BME280;8926;49.720;6.576;2022-12-18T10:21:50;100902.09;;;3.65;44.94
17615;BME280;8926;49.720;6.576;2022-12-18T10:27:28;100890.94;;;2.54;48.18
17615;BME280;8926;49.720;6.576;2022-12-18T10:29:54;100887.72;;;2.03;50.04
17615;BME280;8926;49.720;6.576;2022-12-18T10:32:30;100883.53;;;1.64;51.16
17615;BME280;8926;49.720;6.576;2022-12-18T10:34:57;100877.56;;;1.33;51.29
17615;BME280;8926;49.720;6.576;2022-12-18T10:37:25;100878.47;;;1.14;52.54
17615;BME280;8926;49.720;6.576;2022-12-18T10:40:14;100875.88;;;0.97;52.25
17615;BME280;8926;49.720;6.576;2022-12-18T10:42:41;100877.59;;;1.21;53.01
17615;BME280;8926;49.720;6.576;2022-12-18T10:45:16;100870.75;;;0.99;51.79
17615;BME280;8926;49.720;6.576;2022-12-18T10:47:47;100860.44;;;0.75;52.76
17615;BME280;8926;49.720;6.576;2022-12-18T10:50:29;100863.88;;;0.77;53.62
17615;BME280;8926;49.720;6.576;2022-12-18T10:53:03;100862.13;;;0.60;53.36
17615;BME280;8926;49.720;6.576;2022-12-18T10:55:39;100868.97;;;0.43;53.98
17615;BME280;8926;49.720;6.576;2022-12-18T11:01:02;100850.91;;;0.29;55.14
17615;BME280;8926;49.720;6.576;2022-12-18T11:03:37;100851.78;;;0.24;56.15
17615;BME280;8926;49.720;6.576;2022-12-18T11:06:07;100846.63;;;0.18;56.28
17615;BME280;8926;49.720;6.576;2022-12-18T11:08:33;100855.19;;;0.17;55.90
17615;BME280;8926;49.720;6.576;2022-12-18T11:10:59;100854.31;;;0.18;56.06
17615;BME280;8926;49.720;6.576;2022-12-18T11:13:26;100855.13;;;0.06;56.66
17615;BME280;8926;49.720;6.576;2022-12-18T11:15:53;100851.69;;;0.06;56.72
17615;BME280;8926;49.720;6.576;2022-12-18T11:20:56;100838.91;;;0.21;56.50
17615;BME280;8926;49.720;6.576;2022-12-18T11:23:23;100833.78;;;0.19;57.31
17615;BME280;8926;49.720;6.576;2022-12-18T11:26:00;100820.94;;;0.21;56.56
17615;BME280;8926;49.720;6.576;2022-12-18T11:31:39;100840.66;;;0.23;57.43
17615;BME280;8926;49.720;6.576;2022-12-18T11:34:25;100836.31;;;0.12;57.68
17615;BME280;8926;49.720;6.576;2022-12-18T11:36:53;100831.16;;;0.06;58.09
17615;BME280;8926;49.720;6.576;2022-12-18T11:39:42;100831.19;;;0.12;57.94
17615;BME280;8926;49.720;6.576;2022-12-18T11:42:32;100820.09;;;0.22;57.54
17615;BME280;8926;49.720;6.576;2022-12-18T11:47:50;100834.63;;;0.17;58.02
17615;BME280;8926;49.720;6.576;2022-12-18T11:50:20;100825.97;;;-0.07;58.70
17615;BME280;8926;49.720;6.576;2022-12-18T11:52:47;100819.06;;;-0.20;58.74
17615;BME280;8926;49.720;6.576;2022-12-18T11:58:17;100808.72;;;-0.38;59.96
17615;BME280;8926;49.720;6.576;2022-12-18T12:03:57;100803.47;;;-0.62;61.17
17615;BME280;8926;49.720;6.576;2022-12-18T12:14:48;100775.91;;;-0.94;62.26
17615;BME280;8926;49.720;6.576;2022-12-18T12:19:56;100770.72;;;-1.03;61.44
17615;BME280;8926;49.720;6.576;2022-12-18T12:22:48;100767.22;;;-1.17;62.85
17615;BME280;8926;49.720;6.576;2022-12-18T12:25:42;100767.97;;;-1.27;63.67
17615;BME280;8926;49.720;6.576;2022-12-18T12:28:33;100769.72;;;-1.23;64.32
17615;BME280;8926;49.720;6.576;2022-12-18T12:34:26;100760.34;;;-1.21;64.88
17615;BME280;8926;49.720;6.576;2022-12-18T12:39:40;100756.16;;;-1.12;64.36
17615;BME280;8926;49.720;6.576;2022-12-18T12:42:31;100756.97;;;-1.14;64.51
17615;BME280;8926;49.720;6.576;2022-12-18T12:45:23;100755.28;;;-1.12;65.08
17615;BME280;8926;49.720;6.576;2022-12-18T12:47:52;100755.25;;;-1.18;65.28
17615;BME280;8926;49.720;6.576;2022-12-18T12:50:20;100757.81;;;-1.17;65.19
17615;BME280;8926;49.720;6.576;2022-12-18T12:52:51;100762.16;;;-1.08;65.70
17615;BME280;8926;49.720;6.576;2022-12-18T12:55:21;100751.06;;;-1.06;65.56
17615;BME280;8926;49.720;6.576;2022-12-18T12:58:12;100752.78;;;-1.06;65.45
17615;BME280;8926;49.720;6.576;2022-12-18T13:00:49;100746.81;;;-0.99;65.43
17615;BME280;8926;49.720;6.576;2022-12-18T13:03:32;100748.53;;;-0.98;65.91
17615;BME280;8926;49.720;6.576;2022-12-18T13:06:29;100749.38;;;-1.00;65.45
17615;BME280;8926;49.720;6.576;2022-12-18T13:08:56;100749.34;;;-1.07;65.33
17615;BME280;8926;49.720;6.576;2022-12-18T13:11:48;100735.63;;;-1.13;66.21
17615;BME280;8926;49.720;6.576;2022-12-18T13:14:34;100739.94;;;-1.11;65.74
17615;BME280;8926;49.720;6.576;2022-12-18T13:19:44;100740.81;;;-1.07;66.66
17615;BME280;8926;49.720;6.576;2022-12-18T13:22:38;100739.97;;;-1.02;66.45
17615;BME280;8926;49.720;6.576;2022-12-18T13:25:28;100739.13;;;-1.05;66.39
17615;BME280;8926;49.720;6.576;2022-12-18T13:28:15;100744.22;;;-1.08;66.65
17615;BME280;8926;49.720;6.576;2022-12-18T13:30:48;100735.66;;;-1.10;66.28
17615;BME280;8926;49.720;6.576;2022-12-18T13:38:37;100729.69;;;-1.09;68.31
17615;BME280;8926;49.720;6.576;2022-12-18T13:43:46;100716.00;;;-1.11;67.69
17615;BME280;8926;49.720;6.576;2022-12-18T13:48:55;100698.91;;;-1.11;68.34
17615;BME280;8926;49.720;6.576;2022-12-18T13:51:22;100695.44;;;-1.17;68.91
17615;BME280;8926;49.720;6.576;2022-12-18T13:53:58;100702.25;;;-1.19;68.96
17615;BME280;8926;49.720;6.576;2022-12-18T13:56:26;100699.72;;;-1.16;68.54
17615;BME280;8926;49.720;6.576;2022-12-18T14:01:53;100704.84;;;-1.15;68.49
17615;BME280;8926;49.720;6.576;2022-12-18T14:04:23;100691.94;;;-1.27;69.34
17615;BME280;8926;49.720;6.576;2022-12-18T14:06:51;100697.06;;;-1.31;69.81
17615;BME280;8926;49.720;6.576;2022-12-18T14:09:23;100698.75;;;-1.33;69.66
17615;BME280;8926;49.720;6.576;2022-12-18T14:11:50;100707.31;;;-1.31;69.18
17615;BME280;8926;49.720;6.576;2022-12-18T14:14:17;100709.03;;;-1.27;69.48
17615;BME280;8926;49.720;6.576;2022-12-18T14:16:43;100712.47;;;-1.25;69.13
17615;BME280;8926;49.720;6.576;2022-12-18T14:19:17;100700.53;;;-1.23;69.46
17615;BME280;8926;49.720;6.576;2022-12-18T14:21:47;100711.59;;;-1.29;70.13
17615;BME280;8926;49.720;6.576;2022-12-18T14:24:19;100701.34;;;-1.29;70.05
17615;BME280;8926;49.720;6.576;2022-12-18T14:26:45;100703.91;;;-1.30;70.29
17615;BME280;8926;49.720;6.576;2022-12-18T14:29:27;100707.31;;;-1.31;70.66
17615;BME280;8926;49.720;6.576;2022-12-18T14:32:13;100700.47;;;-1.32;70.85